createdAt,value
2023-03-03T00:00:07.645Z,501.21
2023-03-03T00:00:17.644Z,501.33
2023-03-03T00:00:27.657Z,501.29
2023-03-03T00:00:37.673Z,501.30
2023-03-03T00:00:47.666Z,501.35
2023-03-03T00:00:57.651Z,501.32
2023-03-03T00:01:07.649Z,501.31
2023-03-03T00:01:17.658Z,501.35
2023-03-03T00:01:27.677Z,501.21
2023-03-03T00:01:37.653Z,501.26
2023-03-03T00:01:47.656Z,501.33
2023-03-03T00:01:57.703Z,501.35
2023-03-03T00:02:07.657Z,501.33
2023-03-03T00:02:17.690Z,501.26
2023-03-03T00:02:27.697Z,501.24
2023-03-03T00:02:37.700Z,501.28
2023-03-03T00:02:47.661Z,501.21
2023-03-03T00:02:57.658Z,501.37
2023-03-03T00:03:07.757Z,501.28
2023-03-03T00:03:17.715Z,501.25
2023-03-03T00:03:27.704Z,501.22
2023-03-03T00:03:37.714Z,501.16
2023-03-03T00:03:47.758Z,501.24
2023-03-03T00:03:57.662Z,501.20
2023-03-03T00:04:07.665Z,501.24
2023-03-03T00:04:17.665Z,501.29
2023-03-03T00:04:27.676Z,501.25
2023-03-03T00:04:37.679Z,501.19
2023-03-03T00:04:47.667Z,501.23
2023-03-03T00:04:57.664Z,501.20
2023-03-03T00:05:07.673Z,501.22
2023-03-03T00:05:17.679Z,501.17
2023-03-03T00:05:27.677Z,501.16
2023-03-03T00:05:37.691Z,501.16
2023-03-03T00:05:47.667Z,501.14
2023-03-03T00:05:57.685Z,501.17
2023-03-03T00:06:07.671Z,501.27
2023-03-03T00:06:17.674Z,501.21
2023-03-03T00:06:27.677Z,501.29
2023-03-03T00:06:37.685Z,501.27
2023-03-03T00:06:47.694Z,501.33
2023-03-03T00:06:57.673Z,501.38
2023-03-03T00:07:07.685Z,501.38
2023-03-03T00:07:17.686Z,501.39
2023-03-03T00:07:27.680Z,501.54
2023-03-03T00:07:37.689Z,501.52
2023-03-03T00:07:47.678Z,501.63
2023-03-03T00:07:57.678Z,501.63
2023-03-03T00:08:07.685Z,501.75
2023-03-03T00:08:17.681Z,501.73
2023-03-03T00:08:27.694Z,501.87
2023-03-03T00:08:37.696Z,501.86
2023-03-03T00:08:47.710Z,501.88
2023-03-03T00:08:57.688Z,501.96
2023-03-03T00:09:07.692Z,502.04
2023-03-03T00:09:17.692Z,502.06
2023-03-03T00:09:27.696Z,502.10
2023-03-03T00:09:37.692Z,502.16
2023-03-03T00:09:47.696Z,502.16
2023-03-03T00:09:57.691Z,502.24
2023-03-03T00:10:07.697Z,502.22
2023-03-03T00:10:17.694Z,502.35
2023-03-03T00:10:27.699Z,502.33
2023-03-03T00:10:37.712Z,502.37
2023-03-03T00:10:47.700Z,502.41
2023-03-03T00:10:57.699Z,502.40
2023-03-03T00:11:07.705Z,502.45
2023-03-03T00:11:17.700Z,502.47
2023-03-03T00:11:27.699Z,502.49
2023-03-03T00:11:37.711Z,502.50
2023-03-03T00:11:47.697Z,502.57
2023-03-03T00:11:57.698Z,502.71
2023-03-03T00:12:07.696Z,502.68
2023-03-03T00:12:17.705Z,502.77
2023-03-03T00:12:27.714Z,502.84
2023-03-03T00:12:37.708Z,502.85
2023-03-03T00:12:47.710Z,502.87
2023-03-03T00:12:57.702Z,502.86
2023-03-03T00:13:07.704Z,503.02
2023-03-03T00:13:17.702Z,502.93
2023-03-03T00:13:27.729Z,502.97
2023-03-03T00:13:37.710Z,503.14
2023-03-03T00:13:47.760Z,503.33
2023-03-03T00:13:57.705Z,503.12
2023-03-03T00:14:07.706Z,503.08
2023-03-03T00:14:17.706Z,503.07
2023-03-03T00:14:27.713Z,503.25
2023-03-03T00:14:37.707Z,503.33
2023-03-03T00:14:47.759Z,503.44
2023-03-03T00:14:57.724Z,503.27
2023-03-03T00:15:07.729Z,503.37
2023-03-03T00:15:17.718Z,503.47
2023-03-03T00:15:27.714Z,503.41
2023-03-03T00:15:37.753Z,503.48
2023-03-03T00:15:47.776Z,503.42
2023-03-03T00:15:57.777Z,503.57
2023-03-03T00:16:07.735Z,503.52
2023-03-03T00:16:17.767Z,503.57
2023-03-03T00:16:27.726Z,503.65
2023-03-03T00:16:37.724Z,503.65
2023-03-03T00:16:47.726Z,503.77
2023-03-03T00:16:57.727Z,503.68
2023-03-03T00:17:07.729Z,503.76
2023-03-03T00:17:17.724Z,503.67
2023-03-03T00:17:27.731Z,503.74
2023-03-03T00:17:37.730Z,503.76
2023-03-03T00:17:47.746Z,503.80
2023-03-03T00:17:57.727Z,503.84
2023-03-03T00:18:07.728Z,503.81
2023-03-03T00:18:17.738Z,503.88
2023-03-03T00:18:27.728Z,503.79
2023-03-03T00:18:37.737Z,503.85
2023-03-03T00:18:47.738Z,503.82
2023-03-03T00:18:57.734Z,503.82
2023-03-03T00:19:07.743Z,503.79
2023-03-03T00:19:17.742Z,503.77
2023-03-03T00:19:27.743Z,503.78
2023-03-03T00:19:37.740Z,503.64
2023-03-03T00:19:47.752Z,503.67
2023-03-03T00:19:57.760Z,503.56
2023-03-03T00:20:07.736Z,503.54
2023-03-03T00:20:17.737Z,503.56
2023-03-03T00:20:27.738Z,503.49
2023-03-03T00:20:37.780Z,503.38
2023-03-03T00:20:47.742Z,503.35
2023-03-03T00:20:57.759Z,503.35
2023-03-03T00:21:07.740Z,503.26
2023-03-03T00:21:17.738Z,503.29
2023-03-03T00:21:27.742Z,503.29
2023-03-03T00:21:37.743Z,503.07
2023-03-03T00:21:47.749Z,503.12
2023-03-03T00:21:57.757Z,503.08
2023-03-03T00:22:07.744Z,503.02
2023-03-03T00:22:17.747Z,502.94
2023-03-03T00:22:27.746Z,502.94
2023-03-03T00:22:37.747Z,502.86
2023-03-03T00:22:47.751Z,502.83
2023-03-03T00:22:57.762Z,502.81
2023-03-03T00:23:07.754Z,502.78
2023-03-03T00:23:17.753Z,502.71
2023-03-03T00:23:27.753Z,502.77
2023-03-03T00:23:37.758Z,502.77
2023-03-03T00:23:47.766Z,502.73
2023-03-03T00:23:57.771Z,502.64
2023-03-03T00:24:07.753Z,502.70
2023-03-03T00:24:17.756Z,502.51
2023-03-03T00:24:27.760Z,502.59
2023-03-03T00:24:37.780Z,502.71
2023-03-03T00:24:47.760Z,502.48
2023-03-03T00:24:57.765Z,502.60
2023-03-03T00:25:07.767Z,502.48
2023-03-03T00:25:17.766Z,502.24
2023-03-03T00:25:27.767Z,502.29
2023-03-03T00:25:37.777Z,502.19
2023-03-03T00:25:47.769Z,502.29
2023-03-03T00:25:57.790Z,502.32
2023-03-03T00:26:07.766Z,502.14
2023-03-03T00:26:17.777Z,502.12
2023-03-03T00:26:27.775Z,502.06
2023-03-03T00:26:37.753Z,502.12
2023-03-03T00:26:47.773Z,502.13
2023-03-03T00:26:57.768Z,502.07
2023-03-03T00:27:07.770Z,502.07
2023-03-03T00:27:17.780Z,502.14
2023-03-03T00:27:27.782Z,502.10
2023-03-03T00:27:37.776Z,502.12
2023-03-03T00:27:47.808Z,502.15
2023-03-03T00:27:57.777Z,502.12
2023-03-03T00:28:07.780Z,502.14
2023-03-03T00:28:17.788Z,502.11
2023-03-03T00:28:27.781Z,502.16
2023-03-03T00:28:37.780Z,502.08
2023-03-03T00:28:47.783Z,502.02
2023-03-03T00:28:57.783Z,502.01
2023-03-03T00:29:07.780Z,502.12
2023-03-03T00:29:17.788Z,502.03
2023-03-03T00:29:27.799Z,502.09
2023-03-03T00:29:37.808Z,502.08
2023-03-03T00:29:47.792Z,502.11
2023-03-03T00:29:57.802Z,502.05
2023-03-03T00:30:07.778Z,502.07
2023-03-03T00:30:17.799Z,502.00
2023-03-03T00:30:27.792Z,502.20
2023-03-03T00:30:37.807Z,502.11
2023-03-03T00:30:47.861Z,501.94
2023-03-03T00:30:57.858Z,502.00
2023-03-03T00:31:07.857Z,502.01
2023-03-03T00:31:17.928Z,502.09
2023-03-03T00:31:27.868Z,502.13
2023-03-03T00:31:37.808Z,502.02
2023-03-03T00:31:47.797Z,502.08
2023-03-03T00:31:57.820Z,502.00
2023-03-03T00:32:07.841Z,502.08
2023-03-03T00:32:17.874Z,502.24
2023-03-03T00:32:27.822Z,502.07
2023-03-03T00:32:37.806Z,502.13
2023-03-03T00:32:47.816Z,502.03
2023-03-03T00:32:57.810Z,502.05
2023-03-03T00:33:07.811Z,502.08
2023-03-03T00:33:17.807Z,502.02
2023-03-03T00:33:27.816Z,501.92
2023-03-03T00:33:37.812Z,501.98
2023-03-03T00:33:47.811Z,501.99
2023-03-03T00:33:57.825Z,501.94
2023-03-03T00:34:07.813Z,502.14
2023-03-03T00:34:17.817Z,502.08
2023-03-03T00:34:27.835Z,501.99
2023-03-03T00:34:37.819Z,501.71
2023-03-03T00:34:47.827Z,501.69
2023-03-03T00:34:57.825Z,501.78
2023-03-03T00:35:07.819Z,501.73
2023-03-03T00:35:17.861Z,501.82
2023-03-03T00:35:27.870Z,501.65
2023-03-03T00:35:37.866Z,501.59
2023-03-03T00:35:47.852Z,501.54
2023-03-03T00:35:57.859Z,501.58
2023-03-03T00:36:07.832Z,501.55
2023-03-03T00:36:17.826Z,501.44
2023-03-03T00:36:27.840Z,501.39
2023-03-03T00:36:37.823Z,501.38
2023-03-03T00:36:47.828Z,501.34
2023-03-03T00:36:57.832Z,501.32
2023-03-03T00:37:07.827Z,500.92
2023-03-03T00:37:17.841Z,500.96
2023-03-03T00:37:27.847Z,500.83
2023-03-03T00:37:37.830Z,500.92
2023-03-03T00:37:47.830Z,500.92
2023-03-03T00:37:57.829Z,500.99
2023-03-03T00:38:07.838Z,500.97
2023-03-03T00:38:17.833Z,500.82
2023-03-03T00:38:27.831Z,500.90
2023-03-03T00:38:37.838Z,501.00
2023-03-03T00:38:47.842Z,500.99
2023-03-03T00:38:57.834Z,500.97
2023-03-03T00:39:07.843Z,500.91
2023-03-03T00:39:17.842Z,501.00
2023-03-03T00:39:27.846Z,501.07
2023-03-03T00:39:37.840Z,501.06
2023-03-03T00:39:47.843Z,501.06
2023-03-03T00:39:57.841Z,501.09
2023-03-03T00:40:07.848Z,501.02
2023-03-03T00:40:17.853Z,501.07
2023-03-03T00:40:27.842Z,501.10
2023-03-03T00:40:37.868Z,501.23
2023-03-03T00:40:47.845Z,501.25
2023-03-03T00:40:57.853Z,501.26
2023-03-03T00:41:07.855Z,501.27
2023-03-03T00:41:17.872Z,501.27
2023-03-03T00:41:27.853Z,501.25
2023-03-03T00:41:37.853Z,501.32
2023-03-03T00:41:47.851Z,501.25
2023-03-03T00:41:57.860Z,501.23
2023-03-03T00:42:07.863Z,501.29
2023-03-03T00:42:17.856Z,501.23
2023-03-03T00:42:27.850Z,501.30
2023-03-03T00:42:37.858Z,501.20
2023-03-03T00:42:47.856Z,501.28
2023-03-03T00:42:57.863Z,501.25
2023-03-03T00:43:07.865Z,501.28
2023-03-03T00:43:17.873Z,501.30
2023-03-03T00:43:27.866Z,501.27
2023-03-03T00:43:37.870Z,501.27
2023-03-03T00:43:47.867Z,501.20
2023-03-03T00:43:57.874Z,501.18
2023-03-03T00:44:07.862Z,501.15
2023-03-03T00:44:17.862Z,501.20
2023-03-03T00:44:27.870Z,501.17
2023-03-03T00:44:37.867Z,501.18
2023-03-03T00:44:47.868Z,501.16
2023-03-03T00:44:57.878Z,501.10
2023-03-03T00:45:07.899Z,501.18
2023-03-03T00:45:17.890Z,501.10
2023-03-03T00:45:27.871Z,501.10
2023-03-03T00:45:37.882Z,501.11
2023-03-03T00:45:47.908Z,501.06
2023-03-03T00:45:57.941Z,501.01
2023-03-03T00:46:07.905Z,500.98
2023-03-03T00:46:17.958Z,500.98
2023-03-03T00:46:27.903Z,500.99
2023-03-03T00:46:37.879Z,500.93
2023-03-03T00:46:47.880Z,501.05
2023-03-03T00:46:57.878Z,501.00
2023-03-03T00:47:07.884Z,501.01
2023-03-03T00:47:17.882Z,501.13
2023-03-03T00:47:31.019Z,501.06
2023-03-03T00:47:37.889Z,501.08
2023-03-03T00:47:47.883Z,501.11
2023-03-03T00:47:57.885Z,501.11
2023-03-03T00:48:07.901Z,501.18
2023-03-03T00:48:17.897Z,501.16
2023-03-03T00:48:27.903Z,501.17
2023-03-03T00:48:37.897Z,501.22
2023-03-03T00:48:47.885Z,501.31
2023-03-03T00:48:57.887Z,501.22
2023-03-03T00:49:07.904Z,501.19
2023-03-03T00:49:17.898Z,501.34
2023-03-03T00:49:27.894Z,501.30
2023-03-03T00:49:37.901Z,501.35
2023-03-03T00:49:47.894Z,501.41
2023-03-03T00:49:57.893Z,501.39
2023-03-03T00:50:07.902Z,501.38
2023-03-03T00:50:17.902Z,501.40
2023-03-03T00:50:27.907Z,501.42
2023-03-03T00:50:37.914Z,501.54
2023-03-03T00:50:47.909Z,501.50
2023-03-03T00:50:57.903Z,501.54
2023-03-03T00:51:07.901Z,501.56
2023-03-03T00:51:17.922Z,501.56
2023-03-03T00:51:27.919Z,501.58
2023-03-03T00:51:37.904Z,501.61
2023-03-03T00:51:47.910Z,501.69
2023-03-03T00:51:57.910Z,501.71
2023-03-03T00:52:07.910Z,501.69
2023-03-03T00:52:17.909Z,501.69
2023-03-03T00:52:27.919Z,501.73
2023-03-03T00:52:37.916Z,501.72
2023-03-03T00:52:47.919Z,501.69
2023-03-03T00:52:57.911Z,501.74
2023-03-03T00:53:07.939Z,501.71
2023-03-03T00:53:17.912Z,501.76
2023-03-03T00:53:27.912Z,501.73
2023-03-03T00:53:37.920Z,501.72
2023-03-03T00:53:47.914Z,501.79
2023-03-03T00:53:57.913Z,501.77
2023-03-03T00:54:07.928Z,501.81
2023-03-03T00:54:17.920Z,501.83
2023-03-03T00:54:27.915Z,501.84
2023-03-03T00:54:37.928Z,501.81
2023-03-03T00:54:47.928Z,501.78
2023-03-03T00:54:57.922Z,501.83
2023-03-03T00:55:07.933Z,501.85
2023-03-03T00:55:17.915Z,501.81
2023-03-03T00:55:27.917Z,501.85
2023-03-03T00:55:37.940Z,501.79
2023-03-03T00:55:47.953Z,501.87
2023-03-03T00:55:57.930Z,501.85
2023-03-03T00:56:07.934Z,501.89
2023-03-03T00:56:17.941Z,501.91
2023-03-03T00:56:27.962Z,501.91
2023-03-03T00:56:37.949Z,501.97
2023-03-03T00:56:47.938Z,501.97
2023-03-03T00:56:57.934Z,502.01
2023-03-03T00:57:07.936Z,502.00
2023-03-03T00:57:17.944Z,502.03
2023-03-03T00:57:27.950Z,502.02
2023-03-03T00:57:37.950Z,502.10
2023-03-03T00:57:47.944Z,502.10
2023-03-03T00:57:57.937Z,502.19
2023-03-03T00:58:07.937Z,502.14
2023-03-03T00:58:17.939Z,502.22
2023-03-03T00:58:27.952Z,502.25
2023-03-03T00:58:37.936Z,502.25
2023-03-03T00:58:47.961Z,502.27
2023-03-03T00:58:57.946Z,502.39
2023-03-03T00:59:07.946Z,502.40
2023-03-03T00:59:17.943Z,502.43
2023-03-03T00:59:27.944Z,502.46
2023-03-03T00:59:37.960Z,502.51
2023-03-03T00:59:47.945Z,502.56
2023-03-03T00:59:57.952Z,502.50
2023-03-03T01:00:07.958Z,502.68
2023-03-03T01:00:17.946Z,502.76
2023-03-03T01:00:27.956Z,502.70
2023-03-03T01:00:37.995Z,502.76
2023-03-03T01:00:47.959Z,502.74
2023-03-03T01:00:57.952Z,502.71
2023-03-03T01:01:07.957Z,502.78
2023-03-03T01:01:17.996Z,502.77
2023-03-03T01:01:28.016Z,502.80
2023-03-03T01:01:38.014Z,502.79
2023-03-03T01:01:48.014Z,502.78
2023-03-03T01:01:58.033Z,502.74
2023-03-03T01:02:07.969Z,502.74
2023-03-03T01:02:17.988Z,502.81
2023-03-03T01:02:28.014Z,502.84
2023-03-03T01:02:38.041Z,502.88
2023-03-03T01:02:48.010Z,502.87
2023-03-03T01:02:57.994Z,502.93
2023-03-03T01:03:07.987Z,502.93
2023-03-03T01:03:17.982Z,502.89
2023-03-03T01:03:27.993Z,502.96
2023-03-03T01:03:37.973Z,503.05
2023-03-03T01:03:47.967Z,503.01
2023-03-03T01:03:57.971Z,503.06
2023-03-03T01:04:07.969Z,503.15
2023-03-03T01:04:17.984Z,503.19
2023-03-03T01:04:27.972Z,503.20
2023-03-03T01:04:37.977Z,503.28
2023-03-03T01:04:47.974Z,503.32
2023-03-03T01:04:57.985Z,503.28
2023-03-03T01:05:07.982Z,503.27
2023-03-03T01:05:17.978Z,503.34
2023-03-03T01:05:27.990Z,503.28
2023-03-03T01:05:37.990Z,503.34
2023-03-03T01:05:47.979Z,503.28
2023-03-03T01:05:58.001Z,503.31
2023-03-03T01:06:08.000Z,503.29
2023-03-03T01:06:17.987Z,503.25
2023-03-03T01:06:27.981Z,503.25
2023-03-03T01:06:37.984Z,503.23
2023-03-03T01:06:47.986Z,503.20
2023-03-03T01:06:57.993Z,503.18
2023-03-03T01:07:07.999Z,503.21
2023-03-03T01:07:17.987Z,503.26
2023-03-03T01:07:27.989Z,503.19
2023-03-03T01:07:37.998Z,503.22
2023-03-03T01:07:47.991Z,503.25
2023-03-03T01:07:57.993Z,503.20
2023-03-03T01:08:08.002Z,503.26
2023-03-03T01:08:17.997Z,503.24
2023-03-03T01:08:28.005Z,503.23
2023-03-03T01:08:37.998Z,503.25
2023-03-03T01:08:47.996Z,503.24
2023-03-03T01:08:57.993Z,503.27
2023-03-03T01:09:08.011Z,503.27
2023-03-03T01:09:17.995Z,503.29
2023-03-03T01:09:27.998Z,503.28
2023-03-03T01:09:38.007Z,503.25
2023-03-03T01:09:48.002Z,503.28
2023-03-03T01:09:57.998Z,503.26
2023-03-03T01:10:08.013Z,503.23
2023-03-03T01:10:18.018Z,503.17
2023-03-03T01:10:28.001Z,503.18
2023-03-03T01:10:38.042Z,503.15
2023-03-03T01:10:48.002Z,503.06
2023-03-03T01:10:58.001Z,503.06
2023-03-03T01:11:08.011Z,503.07
2023-03-03T01:11:18.015Z,503.13
2023-03-03T01:11:28.007Z,503.07
2023-03-03T01:11:38.008Z,503.04
2023-03-03T01:11:48.008Z,503.09
2023-03-03T01:11:58.010Z,503.07
2023-03-03T01:12:08.021Z,503.09
2023-03-03T01:12:18.024Z,503.09
2023-03-03T01:12:28.010Z,503.06
2023-03-03T01:12:38.037Z,503.12
2023-03-03T01:12:48.014Z,503.21
2023-03-03T01:12:58.049Z,503.23
2023-03-03T01:13:08.032Z,503.23
2023-03-03T01:13:18.044Z,503.24
2023-03-03T01:13:28.018Z,503.25
2023-03-03T01:13:38.227Z,503.21
2023-03-03T01:13:48.018Z,503.26
2023-03-03T01:13:58.067Z,503.23
2023-03-03T01:14:08.057Z,503.26
2023-03-03T01:14:18.087Z,503.20
2023-03-03T01:14:28.072Z,503.26
2023-03-03T01:14:38.020Z,503.18
2023-03-03T01:14:48.023Z,503.20
2023-03-03T01:14:58.021Z,503.21
2023-03-03T01:15:08.027Z,503.27
2023-03-03T01:15:18.023Z,503.26
2023-03-03T01:15:28.028Z,503.22
2023-03-03T01:15:38.065Z,503.30
2023-03-03T01:15:48.087Z,503.30
2023-03-03T01:15:58.072Z,503.29
2023-03-03T01:16:08.080Z,503.30
2023-03-03T01:16:18.109Z,503.31
2023-03-03T01:16:28.055Z,503.41
2023-03-03T01:16:38.025Z,503.35
2023-03-03T01:16:48.033Z,503.38
2023-03-03T01:16:58.033Z,503.49
2023-03-03T01:17:08.033Z,503.49
2023-03-03T01:17:18.032Z,503.56
2023-03-03T01:17:28.036Z,503.55
2023-03-03T01:17:38.040Z,503.61
2023-03-03T01:17:48.037Z,503.65
2023-03-03T01:17:58.037Z,503.72
2023-03-03T01:18:08.059Z,503.75
2023-03-03T01:18:18.054Z,503.80
2023-03-03T01:18:28.045Z,503.82
2023-03-03T01:18:38.050Z,503.84
2023-03-03T01:18:48.044Z,503.92
2023-03-03T01:18:58.062Z,503.92
2023-03-03T01:19:08.046Z,504.00
2023-03-03T01:19:18.222Z,504.01
2023-03-03T01:19:28.051Z,504.04
2023-03-03T01:19:38.044Z,503.98
2023-03-03T01:19:48.054Z,504.06
2023-03-03T01:19:58.062Z,504.04
2023-03-03T01:20:08.045Z,504.07
2023-03-03T01:20:18.046Z,504.10
2023-03-03T01:20:28.057Z,504.18
2023-03-03T01:20:38.049Z,504.11
2023-03-03T01:20:48.063Z,504.20
2023-03-03T01:20:58.073Z,504.18
2023-03-03T01:21:08.051Z,504.26
2023-03-03T01:21:18.064Z,504.27
2023-03-03T01:21:28.050Z,504.30
2023-03-03T01:21:38.053Z,504.33
2023-03-03T01:21:48.053Z,504.39
2023-03-03T01:21:58.054Z,504.34
2023-03-03T01:22:08.052Z,504.38
2023-03-03T01:22:18.072Z,504.44
2023-03-03T01:22:28.059Z,504.48
2023-03-03T01:22:38.053Z,504.47
2023-03-03T01:22:48.054Z,504.46
2023-03-03T01:22:58.062Z,504.56
2023-03-03T01:23:08.061Z,504.58
2023-03-03T01:23:18.066Z,504.61
2023-03-03T01:23:28.068Z,504.62
2023-03-03T01:23:38.067Z,504.59
2023-03-03T01:23:48.068Z,504.63
2023-03-03T01:23:58.066Z,504.68
2023-03-03T01:24:08.063Z,504.67
2023-03-03T01:24:18.074Z,504.69
2023-03-03T01:24:28.075Z,504.68
2023-03-03T01:24:38.072Z,504.69
2023-03-03T01:24:48.065Z,504.75
2023-03-03T01:25:00.229Z,504.70
2023-03-03T01:25:08.065Z,504.77
2023-03-03T01:25:18.071Z,504.69
2023-03-03T01:25:28.069Z,504.76
2023-03-03T01:25:38.070Z,504.80
2023-03-03T01:25:48.093Z,504.83
2023-03-03T01:25:58.072Z,504.77
2023-03-03T01:26:08.077Z,504.84
2023-03-03T01:26:18.070Z,504.79
2023-03-03T01:26:28.071Z,504.84
2023-03-03T01:26:38.078Z,504.81
2023-03-03T01:26:48.076Z,504.86
2023-03-03T01:26:58.082Z,504.88
2023-03-03T01:27:08.089Z,504.87
2023-03-03T01:27:18.082Z,504.90
2023-03-03T01:27:28.088Z,504.88
2023-03-03T01:27:38.086Z,504.90
2023-03-03T01:27:48.081Z,504.92
2023-03-03T01:27:58.094Z,504.93
2023-03-03T01:28:08.087Z,504.85
2023-03-03T01:28:18.084Z,504.94
2023-03-03T01:28:28.087Z,504.87
2023-03-03T01:28:38.099Z,504.91
2023-03-03T01:28:48.095Z,504.85
2023-03-03T01:28:58.085Z,504.93
2023-03-03T01:29:08.088Z,504.87
2023-03-03T01:29:18.088Z,504.87
2023-03-03T01:29:28.098Z,504.87
2023-03-03T01:29:38.098Z,504.92
2023-03-03T01:29:48.097Z,504.90
2023-03-03T01:29:58.092Z,504.91
2023-03-03T01:30:08.097Z,504.92
2023-03-03T01:30:18.096Z,504.86
2023-03-03T01:30:28.114Z,504.85
2023-03-03T01:30:38.096Z,504.84
2023-03-03T01:30:48.111Z,504.80
2023-03-03T01:30:58.111Z,504.76
2023-03-03T01:31:08.097Z,504.71
2023-03-03T01:31:18.188Z,504.74
2023-03-03T01:31:28.192Z,504.59
2023-03-03T01:31:38.256Z,504.63
2023-03-03T01:31:48.101Z,504.57
2023-03-03T01:31:58.126Z,504.56
2023-03-03T01:32:08.161Z,504.57
2023-03-03T01:32:18.153Z,504.51
2023-03-03T01:32:28.184Z,504.53
2023-03-03T01:32:38.105Z,504.47
2023-03-03T01:32:48.110Z,504.52
2023-03-03T01:32:58.107Z,504.43
2023-03-03T01:33:08.108Z,504.47
2023-03-03T01:33:18.117Z,504.49
2023-03-03T01:33:28.107Z,504.44
2023-03-03T01:33:38.116Z,504.52
2023-03-03T01:33:48.117Z,504.52
2023-03-03T01:33:58.109Z,504.56
2023-03-03T01:34:08.130Z,504.54
2023-03-03T01:34:18.114Z,504.58
2023-03-03T01:34:28.118Z,504.54
2023-03-03T01:34:38.123Z,504.61
2023-03-03T01:34:48.113Z,504.62
2023-03-03T01:34:58.110Z,504.70
2023-03-03T01:35:08.121Z,504.70
2023-03-03T01:35:18.281Z,504.74
2023-03-03T01:35:28.140Z,504.82
2023-03-03T01:35:38.173Z,504.81
2023-03-03T01:35:48.203Z,504.88
2023-03-03T01:35:58.177Z,504.87
2023-03-03T01:36:08.140Z,504.88
2023-03-03T01:36:18.124Z,504.90
2023-03-03T01:36:28.123Z,504.92
2023-03-03T01:36:38.129Z,504.93
2023-03-03T01:36:48.125Z,504.83
2023-03-03T01:36:58.141Z,504.89
2023-03-03T01:37:08.125Z,504.87
2023-03-03T01:37:18.126Z,504.76
2023-03-03T01:37:28.131Z,504.79
2023-03-03T01:37:38.132Z,504.71
2023-03-03T01:37:48.137Z,504.75
2023-03-03T01:37:58.140Z,504.76
2023-03-03T01:38:08.134Z,504.69
2023-03-03T01:38:18.133Z,504.64
2023-03-03T01:38:28.138Z,504.61
2023-03-03T01:38:38.156Z,504.57
2023-03-03T01:38:48.141Z,504.54
2023-03-03T01:38:58.126Z,504.52
2023-03-03T01:39:08.135Z,504.49
2023-03-03T01:39:18.135Z,504.44
2023-03-03T01:39:28.152Z,504.44
2023-03-03T01:39:38.139Z,504.41
2023-03-03T01:39:48.136Z,504.41
2023-03-03T01:39:58.144Z,504.41
2023-03-03T01:40:08.143Z,504.49
2023-03-03T01:40:18.152Z,504.47
2023-03-03T01:40:28.143Z,504.48
2023-03-03T01:40:38.149Z,504.50
2023-03-03T01:40:48.156Z,504.52
2023-03-03T01:40:58.162Z,504.60
2023-03-03T01:41:08.137Z,504.60
2023-03-03T01:41:18.146Z,504.64
2023-03-03T01:41:28.173Z,504.61
2023-03-03T01:41:38.143Z,504.70
2023-03-03T01:41:48.151Z,504.74
2023-03-03T01:41:58.152Z,504.70
2023-03-03T01:42:08.154Z,504.80
2023-03-03T01:42:18.160Z,504.84
2023-03-03T01:42:28.159Z,504.87
2023-03-03T01:42:38.153Z,504.91
2023-03-03T01:42:48.174Z,504.93
2023-03-03T01:42:58.157Z,504.89
2023-03-03T01:43:08.157Z,504.88
2023-03-03T01:43:18.161Z,504.86
2023-03-03T01:43:28.154Z,504.82
2023-03-03T01:43:38.156Z,504.82
2023-03-03T01:43:48.166Z,504.80
2023-03-03T01:43:58.155Z,504.81
2023-03-03T01:44:08.165Z,504.80
2023-03-03T01:44:18.175Z,504.78
2023-03-03T01:44:28.159Z,504.83
2023-03-03T01:44:38.158Z,504.77
2023-03-03T01:44:48.180Z,504.80
2023-03-03T01:44:58.189Z,504.74
2023-03-03T01:45:08.173Z,504.74
2023-03-03T01:45:18.172Z,504.81
2023-03-03T01:45:28.193Z,504.75
2023-03-03T01:45:38.165Z,504.74
2023-03-03T01:45:48.207Z,504.79
2023-03-03T01:45:58.170Z,504.72
2023-03-03T01:46:08.188Z,504.70
2023-03-03T01:46:18.224Z,504.73
2023-03-03T01:46:28.182Z,504.76
2023-03-03T01:46:38.197Z,504.73
2023-03-03T01:46:48.351Z,504.72
2023-03-03T01:46:58.170Z,504.74
2023-03-03T01:47:08.171Z,504.74
2023-03-03T01:47:18.187Z,504.73
2023-03-03T01:47:28.174Z,504.67
2023-03-03T01:47:38.195Z,504.66
2023-03-03T01:47:48.183Z,504.68
2023-03-03T01:47:58.181Z,504.60
2023-03-03T01:48:08.179Z,504.64
2023-03-03T01:48:18.190Z,504.57
2023-03-03T01:48:28.193Z,504.61
2023-03-03T01:48:38.183Z,504.55
2023-03-03T01:48:48.190Z,504.56
2023-03-03T01:48:58.186Z,504.54
2023-03-03T01:49:08.192Z,504.55
2023-03-03T01:49:18.197Z,504.61
2023-03-03T01:49:28.186Z,504.56
2023-03-03T01:49:38.186Z,504.59
2023-03-03T01:49:48.194Z,504.52
2023-03-03T01:49:58.185Z,504.52
2023-03-03T01:50:08.189Z,504.58
2023-03-03T01:50:18.201Z,504.54
2023-03-03T01:50:28.188Z,504.59
2023-03-03T01:50:38.198Z,504.54
2023-03-03T01:50:48.218Z,504.56
2023-03-03T01:50:58.191Z,504.55
2023-03-03T01:51:08.208Z,504.56
2023-03-03T01:51:18.207Z,504.52
2023-03-03T01:51:28.192Z,504.51
2023-03-03T01:51:38.198Z,504.53
2023-03-03T01:51:48.202Z,504.51
2023-03-03T01:51:58.197Z,504.44
2023-03-03T01:52:08.203Z,504.48
2023-03-03T01:52:18.207Z,504.42
2023-03-03T01:52:28.199Z,504.38
2023-03-03T01:52:38.198Z,504.47
2023-03-03T01:52:48.202Z,504.36
2023-03-03T01:52:58.202Z,504.40
2023-03-03T01:53:08.214Z,504.28
2023-03-03T01:53:18.207Z,504.28
2023-03-03T01:53:28.204Z,504.31
2023-03-03T01:53:38.204Z,504.22
2023-03-03T01:53:48.239Z,504.20
2023-03-03T01:53:58.209Z,504.24
2023-03-03T01:54:08.215Z,504.14
2023-03-03T01:54:18.238Z,504.22
2023-03-03T01:54:28.211Z,504.14
2023-03-03T01:54:38.215Z,504.14
2023-03-03T01:54:48.220Z,504.08
2023-03-03T01:54:58.222Z,504.03
2023-03-03T01:55:08.216Z,504.08
2023-03-03T01:55:18.225Z,504.03
2023-03-03T01:55:28.220Z,503.94
2023-03-03T01:55:38.217Z,503.88
2023-03-03T01:55:48.240Z,503.86
2023-03-03T01:55:58.219Z,503.87
2023-03-03T01:56:08.225Z,503.83
2023-03-03T01:56:18.232Z,503.73
2023-03-03T01:56:28.221Z,503.72
2023-03-03T01:56:38.231Z,503.78
2023-03-03T01:56:48.226Z,503.75
2023-03-03T01:56:58.227Z,503.75
2023-03-03T01:57:08.234Z,503.69
2023-03-03T01:57:18.243Z,503.72
2023-03-03T01:57:28.227Z,503.75
2023-03-03T01:57:38.240Z,503.63
2023-03-03T01:57:48.228Z,503.67
2023-03-03T01:57:58.214Z,503.67
2023-03-03T01:58:08.238Z,503.63
2023-03-03T01:58:18.247Z,503.61
2023-03-03T01:58:28.229Z,503.67
2023-03-03T01:58:38.235Z,503.60
2023-03-03T01:58:48.233Z,503.63
2023-03-03T01:58:58.233Z,503.58
2023-03-03T01:59:08.239Z,503.62
2023-03-03T01:59:18.237Z,503.54
2023-03-03T01:59:28.240Z,503.58
2023-03-03T01:59:38.242Z,503.59
2023-03-03T01:59:48.238Z,503.60
2023-03-03T01:59:58.243Z,503.63
2023-03-03T02:00:08.249Z,503.57
2023-03-03T02:00:18.248Z,503.63
2023-03-03T02:00:28.239Z,503.59
2023-03-03T02:00:38.250Z,503.65
2023-03-03T02:00:48.271Z,503.62
2023-03-03T02:00:58.246Z,503.67
2023-03-03T02:01:08.557Z,503.67
2023-03-03T02:01:18.355Z,503.59
2023-03-03T02:01:28.370Z,503.57
2023-03-03T02:01:38.271Z,503.60
2023-03-03T02:01:48.343Z,503.51
2023-03-03T02:01:58.278Z,503.56
2023-03-03T02:02:08.319Z,503.57
2023-03-03T02:02:18.268Z,503.55
2023-03-03T02:02:28.354Z,503.44
2023-03-03T02:02:38.289Z,503.42
2023-03-03T02:02:48.298Z,503.36
2023-03-03T02:02:58.276Z,503.37
2023-03-03T02:03:08.323Z,503.32
2023-03-03T02:03:18.261Z,503.24
2023-03-03T02:03:28.269Z,503.22
2023-03-03T02:03:38.257Z,503.15
2023-03-03T02:03:48.269Z,503.13
2023-03-03T02:03:58.264Z,503.05
2023-03-03T02:04:08.267Z,503.00
2023-03-03T02:04:18.269Z,502.92
2023-03-03T02:04:28.273Z,502.94
2023-03-03T02:04:38.271Z,502.82
2023-03-03T02:04:48.266Z,502.88